Fernando Porto

Chefscout - Sampaio Correa
25 Nov 2027
Donnerstag
Verarbeitung

Persönlichkeit

Anpassungsfähigkeit (4) Ehrgeiz (11) Kontroverse (14) Loyalität (1) Druck (3) Professionalität (7) Fairness (2) Temperament (19)

Profil

Trainerstil Demokratisch
Lizenz Kontinentale C
Entschlossenheit 8
Menschenführung 6
Motivation 10
Disziplin 4
Arbeitszufriedenheit
100%
Ermüdung
0%
Rolle Chefscout
Gehalt 19.1K p/W
Vertrag 14.03.2029

Leistung

Verhalten Gut
Trainingseffektivität
36%
Spielerentwicklung
45%
Verletzungsprävention
40%
Taktische Umsetzung
55%

Letzte Ereignisse

Spieler begutachtet jetzt
Nahm an einer Scouting-Besprechung teil jetzt
Empfahl ein Transferziel jetzt
Empfahl ein Transferziel jetzt
Nahm an einer Scouting-Besprechung teil jetzt
Nahm an einer Scouting-Besprechung teil jetzt
Spieler begutachtet 7T her
Spieler begutachtet 7T her

Aktuell beobachtet

331
Spieler Verein Status Fähigkeit Vertrauen Beobachtet Zuletzt beobachtet Letzte Stimme
Francisco Maidana Gimnasia y Esgrima Aktiv 119 / 116 40% 1 24.11.2027 -
Facundo Ardiles Estudiantes Aktiv 107 / 117 40% 4 23.11.2027 -
Willian Machado Mirassol Aktiv 128 / 132 40% 1 23.11.2027 -
Rodrigo González Aldosivi Aktiv 119 / 133 40% 2 22.11.2027 -
Cole Bassett Portland Timbers Aktiv 118 / 134 40% 1 22.11.2027 -
Agustín Pereira Albion Aktiv 115 / 109 40% 2 21.11.2027 -
Agustín Benítez Defensores Aktiv 121 / 104 40% 1 21.11.2027 -
Jake Davis Sporting Kansas City Aktiv 115 / 116 40% 1 18.11.2027 -
Nicolás Fernández Maipú Aktiv 102 / 112 40% 1 18.11.2027 -
Franco Camargo Gimnasia y Esgrima Aktiv 103 / 117 40% 1 17.11.2027 -
Tristan Blackmon Vancouver Whitecaps Aktiv 114 / 129 40% 1 17.11.2027 -
Neto Moura Mirassol Aktiv 121 / 130 40% 1 15.11.2027 -
Luis Olivera Defensores Unidos Aktiv 104 / 110 40% 2 14.11.2027 -
Valentín Serrano Arsenal Aktiv 104 / 103 40% 1 14.11.2027 -
Gonzalo Asis Almagro Aktiv 104 / 121 40% 3 11.11.2027 -
Gonzalo Abrego Godoy Cruz Aktiv 124 / 131 40% 2 11.11.2027 -
Nicolás Paz San Martín SJ Aktiv 124 / 126 40% 4 10.11.2027 -
Joel Ezra Enyimba Aktiv 87 / 87 40% 1 10.11.2027 -
Delvin Alfonzo Deportivo Tachira Aktiv 119 / 119 40% 1 09.11.2027 -
Joseph Rosales Austin FC Aktiv 113 / 106 40% 1 09.11.2027 -
Juan Saborido Platense Aktiv 125 / 115 40% 1 08.11.2027 -
Ilay Feingold New England Revolution Aktiv 107 / 124 40% 1 07.11.2027 -
Agustín Ojeda Chaco For Ever Aktiv 119 / 116 40% 1 06.11.2027 -
Matías Machado Racing Aktiv 106 / 117 40% 1 06.11.2027 -
Sergi Palencia Los Angeles Football Club Aktiv 122 / 137 40% 2 05.11.2027 -
Igor Jesus Los Angeles Football Club Aktiv 121 / 119 40% 1 05.11.2027 -
Tomás Jacob Atlanta United FC Aktiv 112 / 117 40% 2 01.11.2027 -
Yannick Bright Inter Miami CF Aktiv 128 / 116 40% 1 01.11.2027 -
Malte Amundsen Columbus Crew Aktiv 128 / 111 40% 1 28.10.2027 -
Nazareno Fernández Colombo Los Andes Aktiv 103 / 101 40% 1 28.10.2027 -
Emiliano Álvarez Progreso Aktiv 121 / 116 40% 1 27.10.2027 -
Lucas Monzón Alvarado Aktiv 117 / 111 40% 2 26.10.2027 -
Joiner Moreno Real Cartagena Aktiv 99 / 91 40% 1 26.10.2027 -
Tobías Ostchega America Mineiro Aktiv 129 / 130 40% 1 25.10.2027 -
Elías Báez Atlanta United FC Aktiv 127 / 131 40% 1 25.10.2027 -
Andrés Álvarez Aguilas Doradas Aktiv 101 / 114 40% 2 24.10.2027 -
Stephen Manyo Rivers United Aktiv 108 / 115 40% 1 24.10.2027 -
Juan Pablo Córdoba Gimnasia y Esgrima Aktiv 110 / 110 40% 2 23.10.2027 -
Godspower Akekoromowei El-Kanemi Warriors Aktiv 81 / 83 40% 2 20.10.2027 -
José Mercado Union Magdalena Aktiv 99 / 101 40% 1 16.10.2027 -
Abel Bustos Racing Aktiv 109 / 123 40% 1 15.10.2027 -
Enzo Silcan Almagro Aktiv 106 / 111 40% 1 15.10.2027 -
Marcelo Saracchi Houston Dynamo Aktiv 132 / 133 40% 1 14.10.2027 -
Alejandro Molina Tristán Suárez Aktiv 123 / 116 40% 1 14.10.2027 -
Walter Juárez Güemes Aktiv 119 / 106 40% 2 13.10.2027 -
Francisco Facello Chacarita Juniors Aktiv 115 / 124 40% 2 13.10.2027 -
Mateo Mendoza Godoy Cruz Aktiv 133 / 118 40% 3 10.10.2027 -
Bruno Leyes Godoy Cruz Aktiv 134 / 121 40% 2 10.10.2027 -
Gonzalo Gamarra Defensores Aktiv 101 / 103 40% 1 07.10.2027 -
Bryan Rivera Estudiantes de Merida Aktiv 103 / 95 40% 1 07.10.2027 -
Delfor Minervino Estudiantes Aktiv 122 / 110 40% 2 06.10.2027 -
Christopher Richards Enyimba Aktiv 104 / 104 40% 1 06.10.2027 -
Emanuel Iñíguez Morón Aktiv 106 / 111 40% 1 04.10.2027 -
Fernando Bersano Madryn Aktiv 126 / 110 40% 1 02.10.2027 -
Robert Voloder New York Red Bulls Aktiv 125 / 112 40% 2 01.10.2027 -
Leonardo Borja La Equidad Aktiv 140 / 141 40% 3 30.09.2027 -
Sergio Reguilón Inter Miami CF Aktiv 136 / 142 40% 2 30.09.2027 -
Dante Álvarez San Martín SJ Aktiv 110 / 117 40% 2 29.09.2027 -
Gino Barbieri Almagro Aktiv 118 / 121 40% 1 29.09.2027 -
Julián Cosi Madryn Aktiv 117 / 114 40% 1 28.09.2027 -
Obinna Nwobodo FC Cincinnati Aktiv 122 / 115 40% 1 27.09.2027 -
Abdulrafiu Taiwo Rivers United Aktiv 82 / 84 40% 1 27.09.2027 -
Santiago Corbo Miramar Misiones Aktiv 106 / 108 40% 3 26.09.2027 -
Kabiru Tijjani Shooting Stars Aktiv 105 / 95 40% 1 22.09.2027 -
Ignacio Abraham Banfield Aktiv 131 / 129 40% 2 21.09.2027 -
Ian Pérez Defensores Aktiv 101 / 103 40% 1 21.09.2027 -
Tomás Fernández Alvarado Aktiv 105 / 108 40% 1 20.09.2027 -
Pablo Adorno Plaza Colonia Aktiv 118 / 114 40% 1 15.09.2027 -
Vicente Poggi Godoy Cruz Aktiv 120 / 129 40% 1 14.09.2027 -
Gabriel Biriduba Bayelsa United Aktiv 96 / 73 40% 1 14.09.2027 -
Effimi Nsi Abia Warriors Aktiv 82 / 112 40% 1 12.09.2027 -
Andrés Ferro Metropolitanos Aktiv 111 / 105 40% 1 10.09.2027 -
Martín García Atlanta Aktiv 113 / 119 40% 1 09.09.2027 -
Ho-yeon Jung Minnesota United FC Aktiv 120 / 136 40% 1 07.09.2027 -
Aaron Herrera Charlotte Football Club Aktiv 124 / 118 40% 1 07.09.2027 -
Innocent Arigu Katsina United Aktiv 84 / 90 40% 2 03.09.2027 -
Daniel Dennis Ikorodu City Aktiv 100 / 80 40% 1 03.09.2027 -
Agustín Bolívar Quilmes Aktiv 115 / 121 40% 1 02.09.2027 -
Julius Emiloju Junior Bendel Insurance Aktiv 84 / 92 40% 1 02.09.2027 -
Mathías Silvera Chaco For Ever Aktiv 115 / 121 40% 2 29.08.2027 -
Santiago López García Banfield Aktiv 121 / 105 40% 1 29.08.2027 -
Mauricio Amaro Atlanta United FC Aktiv 130 / 120 40% 1 24.08.2027 -
Facundo Kidd Plaza Colonia Aktiv 103 / 103 40% 1 23.08.2027 -
Franco Malagueño Colegiales Aktiv 101 / 122 40% 1 21.08.2027 -
Andrea Meroni Mantova Aktiv 122 / 126 40% 1 20.08.2027 -
Ezequiel Neira Carabobo Aktiv 114 / 111 40% 1 20.08.2027 -
Federico Artioli Juve Stabia Aktiv 121 / 108 40% 1 18.08.2027 -
Aleš Matějů Spezia Aktiv 128 / 118 40% 1 18.08.2027 -
Roger Manríque Zulia Aktiv 110 / 112 40% 1 17.08.2027 -
Yolfran Caricote Metropolitanos Aktiv 111 / 97 40% 1 15.08.2027 -
Gianluca Busio Venezia Aktiv 141 / 151 40% 1 13.08.2027 -
Lucas Agazzi Defensor Sporting Aktiv 115 / 129 40% 1 13.08.2027 -
Edoardo Masciangelo Catania Aktiv 104 / 127 40% 1 12.08.2027 -
Álex Lebarbier Real Sociedad Aktiv 117 / 123 40% 1 11.08.2027 -
Luca Villa Salernitana Aktiv 108 / 129 40% 1 11.08.2027 -
Gonzalo Mottes Chacarita Juniors Aktiv 117 / 110 40% 1 10.08.2027 -
Tomás Ribeiro Cultural Leonesa Aktiv 119 / 107 40% 1 10.08.2027 -
Jayden Sweeney Grimsby Town Aktiv 114 / 108 40% 2 09.08.2027 -
James Morris Leyton Orient Aktiv 113 / 127 40% 2 09.08.2027 -
Marcus Ifill Gillingham Aktiv 111 / 96 40% 1 08.08.2027 -
Nor Maviram Barnsley Aktiv 112 / 114 40% 1 08.08.2027 -
Rafael Brito Lusitânia Lourosa Aktiv 113 / 121 40% 2 07.08.2027 -
Terence Vancooten Burton Albion Aktiv 111 / 94 40% 1 07.08.2027 -
Matías Gómez Granada Aktiv 125 / 124 40% 1 06.08.2027 -
Lewis Freestone Stevenage Aktiv 100 / 113 40% 1 06.08.2027 -
David Sousa Casa Pia Aktiv 122 / 134 40% 2 04.08.2027 -
Hamza Choudhury Leicester City Aktiv 135 / 134 40% 1 04.08.2027 -
Zak Swanson Bradford City Aktiv 116 / 105 40% 2 03.08.2027 -
Jordan Gabriel Port Vale Aktiv 111 / 126 40% 1 03.08.2027 -
Udoka Godwin-Malife Burton Albion Aktiv 98 / 89 40% 3 02.08.2027 -
Andy Cannon Exeter City Aktiv 97 / 112 40% 1 02.08.2027 -
Lorenzo Di Stefano Torres Aktiv 108 / 109 40% 1 20.07.2027 -
Dale Taylor Blackpool Aktiv 113 / 112 40% 1 20.07.2027 -
Giacomo Zecca Torres Aktiv 102 / 118 40% 1 13.07.2027 -
Aaron Collins Milton Keynes Dons Aktiv 113 / 121 40% 1 13.07.2027 -
Rhuan Gabriel Cruzeiro Aktiv 90 / 96 62% 1 12.07.2027 Befürworten
Adriel São Paulo Aktiv 84 / 79 62% 1 21.06.2027 Befürworten
Lamine Guèye Barrow AFC Aktiv 128 / 112 40% 1 14.06.2027 -
Kyle Wootton Stockport County Aktiv 127 / 108 40% 1 14.06.2027 -
Jay Matete Milton Keynes Dons Aktiv 126 / 114 40% 1 01.06.2027 -
Thomas Luciano Plymouth Argyle Aktiv 99 / 109 40% 2 31.05.2027 -
David Turnbull Cardiff City Aktiv 110 / 133 40% 1 31.05.2027 -
Dom Ballard Leyton Orient Aktiv 124 / 114 40% 1 31.05.2027 -
Ryan Stirk Chesterfield Aktiv 109 / 103 40% 1 30.05.2027 -
Robbie McKenzie Gillingham Aktiv 85 / 78 40% 1 29.05.2027 -
Liam Bennett Cambridge United Aktiv 107 / 118 40% 1 29.05.2027 -
Josh Tymon Swansea City Aktiv 133 / 111 40% 3 28.05.2027 -
Ilario Monterisi Frosinone Aktiv 144 / 123 40% 1 28.05.2027 -
Mirko Topić Norwich City Aktiv 111 / 111 40% 2 24.05.2027 -
Guillem Molina Huesca Aktiv 121 / 121 40% 1 23.05.2027 -
Mattia Viti Sampdoria Aktiv 143 / 133 40% 1 21.05.2027 -
Bali Mumba Huddersfield Town Aktiv 129 / 133 40% 1 21.05.2027 -
Teden Mengi Luton Town Aktiv 135 / 114 40% 2 20.05.2027 Mehr Infos nötig
Weverson Gil Vicente Aktiv 104 / 104 40% 2 19.05.2027 -
Radinio Balker Huddersfield Town Aktiv 118 / 109 40% 6 19.05.2027 -
Elliot Bonds Fleetwood Town Aktiv 110 / 106 40% 1 18.05.2027 -
Lewis Bate Stockport County Aktiv 114 / 137 40% 1 16.05.2027 -
Jack Tucker Colchester United Aktiv 106 / 84 40% 1 14.05.2027 -
Charlie Webster Burton Albion Aktiv 121 / 106 40% 1 13.05.2027 -
Max Lowe Sheffield Wednesday Aktiv 132 / 128 40% 1 13.05.2027 -
Archie Collins Peterborough United Aktiv 113 / 113 40% 2 12.05.2027 -
Lewis Wing Reading Aktiv 117 / 118 40% 1 12.05.2027 -
Dennis Cirkin Queens Park Rangers Aktiv 139 / 122 40% 1 10.05.2027 -
Idris El Mizouni Leyton Orient Aktiv 125 / 115 40% 1 09.05.2027 -
Gonçalo Oliveira Benfica Aktiv 119 / 109 40% 2 06.05.2027 -
Isaac Kyereh Liberty Professionals Aktiv 127 / 133 40% 1 05.05.2027 -
Kyle John Port Vale Aktiv 95 / 103 40% 3 04.05.2027 -
James Furlong Walsall Aktiv 105 / 102 40% 1 03.05.2027 -
Charlie Savage Reading Aktiv 114 / 102 40% 1 29.04.2027 -
Ellis Iandolo Colchester United Aktiv 92 / 113 40% 1 27.04.2027 -
Akin Famewo Bolton Wanderers Aktiv 101 / 111 40% 1 26.04.2027 -
Roni AVS Aktiv 115 / 103 40% 5 23.04.2027 -
Gonçalo Cardoso Pacos de Ferreira Aktiv 111 / 114 40% 3 23.04.2027 -
Valery Académico de Viseu Aktiv 120 / 108 40% 6 21.04.2027 -
Nabil Touaizi Alverca Aktiv 110 / 133 40% 5 21.04.2027 -
Liziero Nacional Aktiv 114 / 110 40% 3 20.04.2027 -
Zé Carlos Gil Vicente Aktiv 128 / 113 40% 5 20.04.2027 -
Javi Sánchez Arouca Aktiv 147 / 116 40% 3 18.04.2027 -
Andre Dozzell Doncaster Rovers Aktiv 127 / 109 40% 1 18.04.2027 -
Ethan Pye Stockport County Aktiv 125 / 114 40% 1 17.04.2027 -
Caolan Boyd-Munce Wycombe Wanderers Aktiv 108 / 127 40% 1 16.04.2027 -
Luís Esteves Atlas Aktiv 125 / 124 40% 6 15.04.2027 -
João Teixeira Porto Aktiv 95 / 100 40% 3 15.04.2027 -
Dinis Rodrigues Porto Aktiv 104 / 89 40% 2 14.04.2027 -
Robinho Académico de Viseu Aktiv 117 / 119 40% 2 13.04.2027 -
Toni Tamarit Alverca Aktiv 112 / 107 40% 1 13.04.2027 -
Jacques Ekomié Wrexham Aktiv 133 / 123 40% 1 11.04.2027 -
Rodrigo Pinheiro Famalicao Aktiv 113 / 120 40% 3 09.04.2027 -
Luís Bastos Oliveirense Aktiv 87 / 88 40% 2 09.04.2027 -
Paulo Henrique Maritimo Aktiv 117 / 127 40% 1 07.04.2027 -
Francisco Moura Lusitânia Lourosa Aktiv 136 / 140 40% 3 03.04.2027 -
Marc Baró Leiria Aktiv 102 / 95 40% 3 02.04.2027 -
Nicolas Madsen Queens Park Rangers Aktiv 143 / 138 40% 1 31.03.2027 -
MT Santa Clara Aktiv 109 / 129 40% 1 31.03.2027 -
Facundo Cáseres Gil Vicente Aktiv 124 / 120 40% 2 30.03.2027 -
Maxime Dominguez Maritimo Aktiv 124 / 131 40% 1 30.03.2027 -
Felipe Silva Porto Aktiv 108 / 111 40% 1 27.03.2027 -
Tom Moustier Estrela da Amadora Aktiv 122 / 112 40% 1 27.03.2027 -
Pedro Bondo Famalicao Aktiv 102 / 113 40% 3 26.03.2027 -
Miguel Pires Vizela Aktiv 112 / 108 40% 2 25.03.2027 -
Bruno Rodrigues Chaves Aktiv 119 / 105 40% 1 22.03.2027 -
Ricard Sánchez Estoril Praia Aktiv 115 / 134 40% 5 21.03.2027 -
Iano Simão Penafiel Aktiv 104 / 97 40% 1 21.03.2027 -
Volnei Torreense Aktiv 108 / 122 40% 1 19.03.2027 -
Anthony Correia Académico de Viseu Aktiv 106 / 104 40% 1 16.03.2027 -
Martim Cunha Porto Aktiv 91 / 110 40% 1 12.03.2027 -
Rob Atkinson Bristol City Aktiv 120 / 136 40% 1 12.03.2027 -
Kellen Fisher Norwich City Aktiv 135 / 133 40% 1 11.03.2027 -
Soufiane Messeguem Académico de Viseu Aktiv 119 / 123 40% 2 06.03.2027 -
Tiago Esgaio Arouca Aktiv 122 / 104 40% 1 06.03.2027 -
Harry Clarke Preston Aktiv 125 / 122 40% 2 04.03.2027 -
Marvin Elimbi Gil Vicente Aktiv 140 / 119 40% 3 04.03.2027 -
Jack Currie Oxford United Aktiv 138 / 120 40% 2 03.03.2027 -
Afonso Peixoto Felgueiras Aktiv 96 / 116 40% 2 27.02.2027 -
Brayan Medina Tondela Aktiv 115 / 105 40% 3 27.02.2027 -
Mateja Stjepanović Moreirense Aktiv 121 / 132 40% 2 23.02.2027 -
Leonardo Realpe Famalicao Aktiv 121 / 116 40% 2 23.02.2027 -
Lucas Soares Santa Clara Aktiv 127 / 126 40% 5 22.02.2027 -
Aleksandar Busnić KV Kortrijk Aktiv 124 / 108 40% 2 22.02.2027 -
Maga Leiria Aktiv 103 / 113 40% 2 21.02.2027 -
Dinis Pinto Moreirense Aktiv 114 / 114 40% 4 21.02.2027 -
Pedro Ferreira Penafiel Aktiv 131 / 118 40% 1 20.02.2027 -
Alfred Caicedo Vizela Aktiv 100 / 128 40% 1 12.02.2027 -
Genaro Leiria Aktiv 96 / 91 40% 1 08.02.2027 -
Jason Nainggolan Mouscron Aktiv 111 / 112 40% 1 07.02.2027 -
Fernando Fonseca Leixões Aktiv 118 / 126 40% 5 06.02.2027 -
Jordan Holsgrove Estoril Praia Aktiv 129 / 134 40% 2 06.02.2027 -
Renato Sanches AVS Aktiv 116 / 120 40% 2 04.02.2027 -
Aarón Mejía Tijuana Aktiv 117 / 122 40% 1 04.02.2027 -
Marcus McGuane Huddersfield Town Aktiv 117 / 115 40% 1 30.01.2027 -
Finn van Breemen Famalicao Aktiv 132 / 105 40% 1 28.01.2027 -
Miguel Campos Santa Clara Aktiv 110 / 130 40% 2 27.01.2027 -
Dylan Collard Lusitânia Lourosa Aktiv 110 / 113 40% 1 27.01.2027 -
Jackson Porozo Tijuana Aktiv 123 / 115 40% 1 25.01.2027 -
Rémy Vita Tondela Aktiv 100 / 123 40% 1 24.01.2027 -
Phil Neumann Birmingham Aktiv 111 / 104 40% 1 22.01.2027 -
João Queirós Feirense Aktiv 122 / 92 40% 1 19.01.2027 -
Arnau Casas Torreense Aktiv 123 / 100 40% 3 14.01.2027 -
Abdu Conté Casa Pia Aktiv 111 / 127 40% 1 09.01.2027 -
Max Scholze Estrela da Amadora Aktiv 109 / 102 40% 2 05.01.2027 -
André Silva Tondela Aktiv 138 / 123 40% 2 30.12.2026 -
Pablo Fernández Leiria Aktiv 117 / 97 40% 2 30.12.2026 -
Rafinha São Paulo Aktiv 88 / 76 55% 1 21.12.2026 -
João Muniz Sporting CP Aktiv 103 / 122 40% 4 16.12.2026 -
Tiago Ribeiro Oliveirense Aktiv 120 / 101 40% 2 16.12.2026 -
Orlando Neto São Paulo Aktiv 101 / 103 55% 1 07.12.2026 -
Lucas André São Paulo Aktiv 91 / 97 55% 1 06.12.2026 -
Jorge Meireles AVS Aktiv 122 / 101 40% 1 03.12.2026 Mehr Infos nötig
Jhojan Julio Queretaro Aktiv 131 / 130 40% 1 03.12.2026 -
Toby Collyer West Bromwich Albion Aktiv 140 / 116 40% 1 27.11.2026 -
Milton Valenzuela Atlas Aktiv 111 / 107 40% 1 26.11.2026 -
Diogo Spencer Alverca Aktiv 132 / 135 40% 3 25.11.2026 -
Bosun Lawal Stoke City Aktiv 114 / 139 40% 1 24.11.2026 -
Dario Špikić Rio Ave Aktiv 115 / 125 40% 1 23.11.2026 -
Mathias De Amorim Famalicao Aktiv 112 / 115 40% 1 20.11.2026 -
Alejandro Gómez Tijuana Aktiv 129 / 121 40% 1 18.11.2026 -
Paulo Moreira Farense Aktiv 120 / 118 40% 2 17.11.2026 -
Miguel Baeza Nacional Aktiv 122 / 97 40% 1 16.11.2026 -
Adonis Frías Atlas Aktiv 139 / 117 40% 4 12.11.2026 -
João Victor Mirassol Aktiv 110 / 125 40% 1 11.11.2026 -
Santi García Gil Vicente Aktiv 118 / 148 40% 1 11.11.2026 -
Marcos Peña Famalicao Aktiv 111 / 121 40% 2 08.11.2026 -
Lorougnon Gohi Académico de Viseu Aktiv 102 / 126 40% 2 07.11.2026 -
Jordan van der Gaag Leiria Aktiv 128 / 110 40% 1 07.11.2026 -
Bernardo Schappo Estrela da Amadora Aktiv 110 / 137 40% 2 02.11.2026 -
Sidney Lima Braga Aktiv 124 / 114 40% 1 01.11.2026 -
Giorgos Liavas Rio Ave Aktiv 109 / 120 40% 1 31.10.2026 -
João Basso Hajduk Split Aktiv 106 / 101 40% 1 31.10.2026 -
Jérémy Livolant Casa Pia Aktiv 138 / 133 40% 1 31.10.2026 -
Mario Climent Arouca Aktiv 111 / 121 40% 1 29.10.2026 -
Joseph Nduquidi Farense Aktiv 122 / 100 40% 1 28.10.2026 -
Matija Mitrović Vitoria Guimaraes Aktiv 133 / 135 40% 1 25.10.2026 -
Mateo Garavito Deportivo Pasto Aktiv 111 / 115 40% 1 24.10.2026 -
Pablo Rosario Porto Aktiv 142 / 154 40% 1 24.10.2026 -
Matheus Bidu Corinthians Aktiv 117 / 128 40% 1 23.10.2026 -
Emerson Royal Flamengo Aktiv 121 / 135 40% 1 22.10.2026 -
Yaya Sithole Tondela Aktiv 105 / 109 40% 1 22.10.2026 -
Leandro Dias Pacos de Ferreira Aktiv 96 / 99 40% 1 21.10.2026 -
Kevin Höög Jansson Estrela da Amadora Aktiv 103 / 112 40% 1 21.10.2026 -
Afonso Freitas Felgueiras Aktiv 114 / 105 40% 1 20.10.2026 -
Max Bird Birmingham Aktiv 134 / 129 40% 1 17.10.2026 -
Rômulo Tigres Aktiv 129 / 131 40% 1 16.10.2026 -
Junior Hernández Deportes Tolima Aktiv 129 / 105 40% 1 16.10.2026 -
Michael Carcelén Queretaro Aktiv 109 / 123 40% 1 14.10.2026 -
Alexander Bah Benfica Aktiv 142 / 129 40% 1 14.10.2026 -
Tom van de Looi Famalicao Aktiv 136 / 132 40% 1 12.10.2026 -
Gustavo Garcia Famalicao Aktiv 121 / 121 40% 1 11.10.2026 -
Gonçalo Nogueira Vitoria Guimaraes Aktiv 135 / 125 40% 1 10.10.2026 -
Chiheb Labidi Nacional Aktiv 123 / 98 40% 1 09.10.2026 -
Daniel Júnior Nacional Aktiv 124 / 107 40% 1 07.10.2026 -
Rafael Barbosa Feirense Aktiv 103 / 106 40% 2 06.10.2026 -
Paik Seung-Ho Birmingham Aktiv 138 / 122 40% 1 06.10.2026 -
Figueiredo Alverca Aktiv 111 / 137 40% 1 06.10.2026 -
Kévin Denkey FC Cincinnati Aktiv 131 / 133 40% 1 26.09.2026 -
Duk Atlas Aktiv 118 / 116 40% 1 26.09.2026 -
Alejandro Melo Cibalia Aktiv 127 / 98 40% 2 25.09.2026 -
Yanis Begraoui Estoril Praia Aktiv 147 / 122 40% 1 25.09.2026 -
André Lacximicant Estoril Praia Aktiv 125 / 111 40% 1 23.09.2026 -
Rafael Navarro St. Louis CITY SC Aktiv 129 / 123 40% 1 23.09.2026 -
Adnan Courtois KV Oostende Aktiv 128 / 115 40% 3 22.09.2026 -
Santiago Sala Güemes Aktiv 116 / 121 40% 1 22.09.2026 -
Tomás Chancalay Minnesota United FC Aktiv 132 / 138 40% 2 20.09.2026 -
Lucas Duarte Felgueiras Aktiv 109 / 118 40% 1 20.09.2026 -
David Miculescu FCSB Aktiv 124 / 138 40% 1 18.09.2026 -
Héctor Hernández Gil Vicente Aktiv 121 / 137 40% 2 16.09.2026 -
Dany Jean Torreense Aktiv 117 / 118 40% 1 16.09.2026 -
Rodrigo Bogarín Barracas Central Aktiv 130 / 128 40% 2 15.09.2026 -
Alexandre Duville-Parsemain Moreirense Aktiv 103 / 99 40% 2 13.09.2026 -
Esteban da Silva Racing Aktiv 115 / 123 40% 1 13.09.2026 -
Vasco Moreira Alverca Aktiv 119 / 127 40% 1 13.09.2026 -
André Clovis Leiria Aktiv 123 / 127 40% 1 10.09.2026 -
Wessam Abou Ali Columbus Crew Aktiv 133 / 139 40% 1 09.09.2026 -
Luciano Cosentino Wanderers Aktiv 130 / 134 40% 1 09.09.2026 -
João Gonçalves Felgueiras Aktiv 127 / 101 40% 1 08.09.2026 -
Aynsley Pears Blackburn Rovers Aktiv 120 / 124 40% 1 08.09.2026 -
Isaac James Alverca Aktiv 96 / 92 40% 2 07.09.2026 -
Daniel Sappa San Miguel Aktiv 106 / 117 40% 1 07.09.2026 -
Joaquín Silva Plaza Colonia Aktiv 112 / 99 40% 1 07.09.2026 -
Aleksandar Vulić Vizela Aktiv 98 / 90 40% 1 05.09.2026 -
Yousef Salech Cardiff City Aktiv 112 / 142 40% 1 02.09.2026 -
Armindo Sieb Los Angeles Football Club Aktiv 117 / 112 40% 1 02.09.2026 -
Henrique Araújo Casa Pia Aktiv 131 / 114 40% 1 01.09.2026 -
Morgan Guilavogui Real Salt Lake Aktiv 138 / 131 40% 1 31.08.2026 -
Pep Biel Charlotte Football Club Aktiv 140 / 136 40% 1 30.08.2026 -
Federico Martínez Liverpool Montevideo Aktiv 110 / 104 40% 1 30.08.2026 -
Chuchu Ramírez Nacional Aktiv 126 / 126 40% 2 28.08.2026 -
Vinícius Lopes Santa Clara Aktiv 123 / 114 40% 1 27.08.2026 -
Alejo Cruz Juventud Aktiv 116 / 117 40% 1 24.08.2026 -
Tiago Leite Felgueiras Aktiv 85 / 85 40% 1 23.08.2026 -
Jordan Morris Seattle Sounders Aktiv 135 / 131 40% 2 21.08.2026 -
Breel Embolo Atlanta United FC Aktiv 137 / 140 40% 2 21.08.2026 -
Mohammed Bouldini Académico de Viseu Aktiv 137 / 132 40% 1 20.08.2026 -
Diego Romero Universitario Aktiv 127 / 122 40% 1 20.08.2026 -
Antonio Gomis Vizela Aktiv 98 / 131 40% 1 20.08.2026 -
André Moreira Oliveirense Aktiv 122 / 129 40% 1 17.08.2026 -
Dylan Nandín Arouca Aktiv 117 / 122 40% 1 17.08.2026 -
Rafik Guitane Estoril Praia Aktiv 145 / 143 40% 1 16.08.2026 -
Tiago Galletto AVS Aktiv 100 / 99 40% 1 16.08.2026 -
John Kennedy Fluminense Aktiv 127 / 120 40% 1 15.08.2026 -
Enzo Vázquez Central Norte Aktiv 112 / 111 40% 1 13.08.2026 -
Jorge Fernandes Gil Vicente Aktiv 119 / 134 40% 1 12.08.2026 -
Timothy Castagne Fulham Aktiv 147 / 133 40% 1 10.08.2026 -
Taichi Fukui Arouca Aktiv 124 / 114 40% 1 09.08.2026 -
Zé Leite Leixões Aktiv 124 / 100 40% 1 08.08.2026 -
Roméo Beney Famalicao Aktiv 112 / 124 40% 1 05.08.2026 -
Jesus Ferreira Seattle Sounders Aktiv 129 / 131 40% 1 05.08.2026 -
Ferro Estoril Praia Aktiv 103 / 95 40% 1 04.08.2026 -
Ignacio de Arruabarrena Arouca Aktiv 139 / 107 40% 1 04.08.2026 -
Andrew Flamengo Aktiv 120 / 122 40% 1 04.08.2026 -
José Julián Martínez Alverca Aktiv 107 / 127 40% 1 02.08.2026 -
Francisco Ramos Pacos de Ferreira Aktiv 111 / 122 40% 1 01.08.2026 -